Time;durP1;ratioP1;P1;durP2;ratioP2;P2;SDS_P1;SDS_P2;PMS_P1;PMS_P2;Temp;Humidity;BMP_temperature;BMP_pressure;BME280_temperature;BME280_humidity;BME280_pressure;Samples;Min_cycle;Max_cycle;Signal;HPM_P1;HPM_P2
2022/11/24 00:00:13;;;;;;;;;;;;;;;;;;6164825;23;20383;-89
2022/11/24 00:02:39;;;;;;;;;;;;;;;;;;6169391;23;19960;-89
2022/11/24 00:05:05;;;;;;;;;;;;;;;;;;6167713;23;20336;-89
2022/11/24 00:07:30;;;;;;;;;;;;;;;;;;6171622;23;19901;-89
2022/11/24 00:09:56;;;;;;;;;;;;;;;;;;6169221;23;19920;-88
2022/11/24 00:12:23;;;;;;;;;;;;;;;;;;6140380;23;19987;-86
2022/11/24 00:14:49;;;;;;;;;;;;;;;;;;6170862;23;19924;-87
2022/11/24 00:17:15;;;;;;;;;;;;;;;;;;6163660;23;19924;-91
2022/11/24 00:19:41;;;;;;;;;;;;;;;;;;6166202;23;19940;-89
2022/11/24 00:22:10;;;;;;;;;;;;;;;;;;6169125;23;19920;-88
2022/11/24 00:24:36;;;;;;;;;;;;;;;;;;6166632;23;19920;-90
2022/11/24 00:27:02;;;;;;;;;;;;;;;;;;6168696;23;20296;-88
2022/11/24 00:29:28;;;;;;;;;;;;;;;;;;6141009;23;20357;-89
2022/11/24 00:31:54;;;;;;;;;;;;;;;;;;6168328;23;19927;-88
2022/11/24 00:34:20;;;;;;;;;;;;;;;;;;6167393;23;19916;-89
2022/11/24 00:36:46;;;;;;;;;;;;;;;;;;6141292;23;20017;-91
2022/11/24 00:39:11;;;;;;;;;;;;;;;;;;6116964;23;19947;-86
2022/11/24 00:41:37;;;;;;;;;;;;;;;;;;6114836;23;19967;-86
2022/11/24 00:44:03;;;;;;;;;;;;;;;;;;6163632;23;19916;-85
2022/11/24 00:46:29;;;;;;;;;;;;;;;;;;6164186;23;19927;-85
2022/11/24 00:48:55;;;;;;;;;;;;;;;;;;6142300;23;20257;-86
2022/11/24 00:51:21;;;;;;;;;;;;;;;;;;6163015;23;19917;-86
2022/11/24 00:53:47;;;;;;;;;;;;;;;;;;6165469;23;19948;-86
2022/11/24 00:56:13;;;;;;;;;;;;;;;;;;6165512;23;19923;-87
2022/11/24 00:58:39;;;;;;;;;;;;;;;;;;6167977;23;19991;-87
2022/11/24 01:01:05;;;;;;;;;;;;;;;;;;6170299;23;19916;-85
2022/11/24 01:03:31;;;;;;;;;;;;;;;;;;6167923;23;20259;-85
2022/11/24 01:05:57;;;;;;;;;;;;;;;;;;6166573;23;20071;-86
2022/11/24 01:08:23;;;;;;;;;;;;;;;;;;6166873;23;19927;-86
2022/11/24 01:10:49;;;;;;;;;;;;;;;;;;6165942;23;20396;-86
2022/11/24 01:13:15;;;;;;;;;;;;;;;;;;6166930;23;19916;-86
2022/11/24 01:15:41;;;;;;;;;;;;;;;;;;6171147;23;19940;-86
2022/11/24 01:18:07;;;;;;;;;;;;;;;;;;6165190;23;19920;-85
2022/11/24 01:20:33;;;;;;;;;;;;;;;;;;6170171;23;19967;-86
2022/11/24 01:22:58;;;;;;;;;;;;;;;;;;6165747;23;20039;-86
2022/11/24 01:25:24;;;;;;;;;;;;;;;;;;6116072;23;19917;-86
2022/11/24 01:27:50;;;;;;;;;;;;;;;;;;6166494;23;19917;-87
2022/11/24 01:30:16;;;;;;;;;;;;;;;;;;6166827;23;19916;-86
2022/11/24 01:32:42;;;;;;;;;;;;;;;;;;6165272;23;19916;-87
2022/11/24 01:35:08;;;;;;;;;;;;;;;;;;6164592;23;19916;-87
2022/11/24 01:37:34;;;;;;;;;;;;;;;;;;6166531;23;19917;-86
2022/11/24 01:40:00;;;;;;;;;;;;;;;;;;6164599;23;19956;-88
2022/11/24 01:42:26;;;;;;;;;;;;;;;;;;6165915;23;20391;-87
2022/11/24 01:44:52;;;;;;;;;;;;;;;;;;6163684;23;20234;-87
2022/11/24 01:47:18;;;;;;;;;;;;;;;;;;6110379;23;19997;-86
2022/11/24 01:49:44;;;;;;;;;;;;;;;;;;6111629;23;20030;-87
2022/11/24 01:52:10;;;;;;;;;;;;;;;;;;6112813;23;20343;-86
2022/11/24 01:54:36;;;;;;;;;;;;;;;;;;6112792;23;19944;-87
2022/11/24 01:57:02;;;;;;;;;;;;;;;;;;6111371;23;19921;-86
2022/11/24 01:59:28;;;;;;;;;;;;;;;;;;6110999;23;20379;-86
2022/11/24 02:01:54;;;;;;;;;;;;;;;;;;6110715;23;19940;-87
2022/11/24 02:04:22;;;;;;;;;;;;;;;;;;6111337;23;19921;-86
2022/11/24 02:06:48;;;;;;;;;;;;;;;;;;6112922;23;19945;-87
2022/11/24 02:09:14;;;;;;;;;;;;;;;;;;6110989;23;19955;-86
2022/11/24 02:11:40;;;;;;;;;;;;;;;;;;6117348;23;19925;-86
2022/11/24 02:14:06;;;;;;;;;;;;;;;;;;6112006;23;19917;-87
2022/11/24 02:16:32;;;;;;;;;;;;;;;;;;6115696;23;19921;-86
2022/11/24 02:18:58;;;;;;;;;;;;;;;;;;6111137;23;19921;-86
2022/11/24 02:21:24;;;;;;;;;;;;;;;;;;6116639;23;19912;-86
2022/11/24 02:23:50;;;;;;;;;;;;;;;;;;6115574;23;19924;-88
2022/11/24 02:26:16;;;;;;;;;;;;;;;;;;6112892;23;19921;-87
2022/11/24 02:28:42;;;;;;;;;;;;;;;;;;6115443;23;19944;-86
2022/11/24 02:31:08;;;;;;;;;;;;;;;;;;6108533;23;19992;-87
2022/11/24 02:33:33;;;;;;;;;;;;;;;;;;6113346;23;20337;-85
2022/11/24 02:35:59;;;;;;;;;;;;;;;;;;6063190;23;20248;-86
2022/11/24 02:38:25;;;;;;;;;;;;;;;;;;6112055;23;19932;-86
2022/11/24 02:40:51;;;;;;;;;;;;;;;;;;6115426;23;19941;-85
2022/11/24 02:43:17;;;;;;;;;;;;;;;;;;6110347;23;20308;-86
2022/11/24 02:45:43;;;;;;;;;;;;;;;;;;6114975;23;19921;-85
2022/11/24 02:48:09;;;;;;;;;;;;;;;;;;6113829;23;19995;-87
2022/11/24 02:50:35;;;;;;;;;;;;;;;;;;6116947;23;19917;-88
2022/11/24 02:53:01;;;;;;;;;;;;;;;;;;6066469;23;20309;-87
2022/11/24 02:55:27;;;;;;;;;;;;;;;;;;6060715;23;19917;-87
2022/11/24 02:57:53;;;;;;;;;;;;;;;;;;6115932;23;19991;-87
2022/11/24 03:00:19;;;;;;;;;;;;;;;;;;6110189;23;19952;-88
2022/11/24 03:02:45;;;;;;;;;;;;;;;;;;6117627;23;19916;-88
2022/11/24 03:05:11;;;;;;;;;;;;;;;;;;6113041;23;19917;-86
2022/11/24 03:07:37;;;;;;;;;;;;;;;;;;6111562;23;19939;-88
2022/11/24 03:10:03;;;;;;;;;;;;;;;;;;6115718;23;19923;-86
2022/11/24 03:12:29;;;;;;;;;;;;;;;;;;6111794;23;19956;-87
2022/11/24 03:14:55;;;;;;;;;;;;;;;;;;6115342;23;19912;-85
2022/11/24 03:17:21;;;;;;;;;;;;;;;;;;6110375;23;19995;-87
2022/11/24 03:19:47;;;;;;;;;;;;;;;;;;6112686;23;19916;-87
2022/11/24 03:22:13;;;;;;;;;;;;;;;;;;6110901;23;19917;-86
2022/11/24 03:24:39;;;;;;;;;;;;;;;;;;6110124;23;19923;-86
2022/11/24 03:27:05;;;;;;;;;;;;;;;;;;6111511;23;19917;-86
2022/11/24 03:29:31;;;;;;;;;;;;;;;;;;6110250;23;20743;-86
2022/11/24 03:31:57;;;;;;;;;;;;;;;;;;6114774;23;19927;-86
2022/11/24 03:34:23;;;;;;;;;;;;;;;;;;6063585;23;19972;-87
2022/11/24 03:36:49;;;;;;;;;;;;;;;;;;6111314;23;19921;-88
2022/11/24 03:39:15;;;;;;;;;;;;;;;;;;6113641;23;19913;-86
2022/11/24 03:41:41;;;;;;;;;;;;;;;;;;6109509;23;19956;-87
2022/11/24 03:44:07;;;;;;;;;;;;;;;;;;6112785;23;19927;-87
2022/11/24 03:46:33;;;;;;;;;;;;;;;;;;6110294;23;19924;-87
2022/11/24 03:48:59;;;;;;;;;;;;;;;;;;6113068;23;20386;-87
2022/11/24 03:51:25;;;;;;;;;;;;;;;;;;6111658;23;19917;-87
2022/11/24 03:53:51;;;;;;;;;;;;;;;;;;6112184;23;19924;-87
2022/11/24 03:56:17;;;;;;;;;;;;;;;;;;6111334;23;19951;-88
2022/11/24 03:58:43;;;;;;;;;;;;;;;;;;6109667;23;20715;-86
2022/11/24 04:01:09;;;;;;;;;;;;;;;;;;6112432;23;20108;-87
2022/11/24 04:03:34;;;;;;;;;;;;;;;;;;6109751;23;20635;-87
2022/11/24 04:06:00;;;;;;;;;;;;;;;;;;6110956;23;19927;-87
2022/11/24 04:08:26;;;;;;;;;;;;;;;;;;6109370;23;20268;-88
2022/11/24 04:10:52;;;;;;;;;;;;;;;;;;6110497;23;19955;-87
2022/11/24 04:13:18;;;;;;;;;;;;;;;;;;6114464;23;20047;-86
2022/11/24 04:15:44;;;;;;;;;;;;;;;;;;6110386;23;20248;-87
2022/11/24 04:18:10;;;;;;;;;;;;;;;;;;6112177;23;19928;-87
2022/11/24 04:20:36;;;;;;;;;;;;;;;;;;6108227;23;19920;-86
2022/11/24 04:23:02;;;;;;;;;;;;;;;;;;6109543;23;19916;-86
2022/11/24 04:25:28;;;;;;;;;;;;;;;;;;6110385;23;19953;-86
2022/11/24 04:27:54;;;;;;;;;;;;;;;;;;6113238;23;19917;-86
2022/11/24 04:30:20;;;;;;;;;;;;;;;;;;6113557;23;19921;-86
2022/11/24 04:32:46;;;;;;;;;;;;;;;;;;6109101;23;19916;-85
2022/11/24 04:35:11;;;;;;;;;;;;;;;;;;6110982;23;19957;-87
2022/11/24 04:37:37;;;;;;;;;;;;;;;;;;6110336;23;20337;-86
2022/11/24 04:40:03;;;;;;;;;;;;;;;;;;6113516;23;19923;-86
2022/11/24 04:42:29;;;;;;;;;;;;;;;;;;6112646;23;19992;-85
2022/11/24 04:44:55;;;;;;;;;;;;;;;;;;6115092;23;19944;-86
2022/11/24 04:47:21;;;;;;;;;;;;;;;;;;6110476;23;19967;-86
2022/11/24 04:49:48;;;;;;;;;;;;;;;;;;6111143;23;19920;-87
2022/11/24 04:52:13;;;;;;;;;;;;;;;;;;6112275;23;20334;-86
2022/11/24 04:54:39;;;;;;;;;;;;;;;;;;6110326;23;19916;-86
2022/11/24 04:57:05;;;;;;;;;;;;;;;;;;6113101;23;19959;-86
2022/11/24 04:59:31;;;;;;;;;;;;;;;;;;6109493;23;19917;-87
2022/11/24 05:01:57;;;;;;;;;;;;;;;;;;6110343;23;20300;-87
2022/11/24 05:04:23;;;;;;;;;;;;;;;;;;6109950;23;19916;-86
2022/11/24 05:06:49;;;;;;;;;;;;;;;;;;6110104;23;20384;-86
2022/11/24 05:09:15;;;;;;;;;;;;;;;;;;6111233;23;19948;-87
2022/11/24 05:11:41;;;;;;;;;;;;;;;;;;6108331;23;20015;-86
2022/11/24 05:14:07;;;;;;;;;;;;;;;;;;6112674;23;20141;-86
2022/11/24 05:16:33;;;;;;;;;;;;;;;;;;6109477;23;19921;-85
2022/11/24 05:18:59;;;;;;;;;;;;;;;;;;6111623;23;19921;-86
2022/11/24 05:21:25;;;;;;;;;;;;;;;;;;6111627;23;19944;-86
2022/11/24 05:23:50;;;;;;;;;;;;;;;;;;6109695;23;20397;-86
2022/11/24 05:26:17;;;;;;;;;;;;;;;;;;6065020;23;19991;-86
2022/11/24 05:28:43;;;;;;;;;;;;;;;;;;6111117;23;19923;-85
2022/11/24 05:31:09;;;;;;;;;;;;;;;;;;6113537;23;19967;-86
2022/11/24 05:33:35;;;;;;;;;;;;;;;;;;6110239;23;20281;-87
2022/11/24 05:36:01;;;;;;;;;;;;;;;;;;6113043;23;19956;-85
2022/11/24 05:38:28;;;;;;;;;;;;;;;;;;6107771;23;20494;-88
2022/11/24 05:40:54;;;;;;;;;;;;;;;;;;6110240;23;19920;-86
2022/11/24 05:43:20;;;;;;;;;;;;;;;;;;6116089;23;19944;-87
2022/11/24 05:45:46;;;;;;;;;;;;;;;;;;6083559;23;19916;-87
2022/11/24 05:48:12;;;;;;;;;;;;;;;;;;6121278;23;19928;-86
2022/11/24 05:50:38;;;;;;;;;;;;;;;;;;6116224;23;19948;-87
2022/11/24 05:53:04;;;;;;;;;;;;;;;;;;6116307;23;19916;-86
2022/11/24 05:55:30;;;;;;;;;;;;;;;;;;6171499;23;19923;-90
2022/11/24 05:57:56;;;;;;;;;;;;;;;;;;6169679;23;19980;-89
2022/11/24 06:00:22;;;;;;;;;;;;;;;;;;6173708;23;19943;-90
2022/11/24 06:02:48;;;;;;;;;;;;;;;;;;6167994;23;19996;-89
2022/11/24 06:05:14;;;;;;;;;;;;;;;;;;6171267;23;19908;-88
2022/11/24 06:07:39;;;;;;;;;;;;;;;;;;6165541;23;19923;-85
2022/11/24 06:10:05;;;;;;;;;;;;;;;;;;6163093;23;20399;-87
2022/11/24 06:12:31;;;;;;;;;;;;;;;;;;6167911;23;19927;-88
2022/11/24 06:14:57;;;;;;;;;;;;;;;;;;6171621;23;19912;-93
2022/11/24 06:17:24;;;;;;;;;;;;;;;;;;6162916;23;20518;-85
2022/11/24 06:19:50;;;;;;;;;;;;;;;;;;6142855;23;19999;-88
2022/11/24 06:22:18;;;;;;;;;;;;;;;;;;6169308;23;20368;-87
2022/11/24 06:24:45;;;;;;;;;;;;;;;;;;6143759;23;19916;-86
2022/11/24 06:27:11;;;;;;;;;;;;;;;;;;6165009;23;20007;-87
2022/11/24 06:29:37;;;;;;;;;;;;;;;;;;6170743;23;19920;-86
2022/11/24 06:32:03;;;;;;;;;;;;;;;;;;6140886;23;20623;-86
2022/11/24 06:34:29;;;;;;;;;;;;;;;;;;6169609;23;19912;-87
2022/11/24 06:36:54;;;;;;;;;;;;;;;;;;6164036;23;19921;-86
2022/11/24 06:39:20;;;;;;;;;;;;;;;;;;6144028;23;19920;-87
2022/11/24 06:41:46;;;;;;;;;;;;;;;;;;6164621;23;19987;-87
2022/11/24 06:44:12;;;;;;;;;;;;;;;;;;6164042;23;19917;-86
2022/11/24 06:46:38;;;;;;;;;;;;;;;;;;6118201;23;19987;-87
2022/11/24 06:49:04;;;;;;;;;;;;;;;;;;6140883;23;20248;-90
2022/11/24 06:51:30;;;;;;;;;;;;;;;;;;6169134;23;19917;-87
2022/11/24 06:53:56;;;;;;;;;;;;;;;;;;6140206;23;19924;-86
2022/11/24 06:56:22;;;;;;;;;;;;;;;;;;6172134;23;19967;-91
2022/11/24 06:58:48;;;;;;;;;;;;;;;;;;6166976;23;20019;-88
2022/11/24 07:01:14;;;;;;;;;;;;;;;;;;6142950;23;20035;-89
2022/11/24 07:03:40;;;;;;;;;;;;;;;;;;6169720;23;19944;-88
2022/11/24 07:06:06;;;;;;;;;;;;;;;;;;6165132;23;19917;-88
2022/11/24 07:08:32;;;;;;;;;;;;;;;;;;6169711;23;19920;-89
2022/11/24 07:10:58;;;;;;;;;;;;;;;;;;6144204;23;20317;-88
2022/11/24 07:13:24;;;;;;;;;;;;;;;;;;6172048;23;19915;-87
2022/11/24 07:15:50;;;;;;;;;;;;;;;;;;6167709;23;19916;-88
2022/11/24 07:18:16;;;;;;;;;;;;;;;;;;6166931;23;20015;-87
2022/11/24 07:20:42;;;;;;;;;;;;;;;;;;6173315;23;19927;-88
2022/11/24 07:23:08;;;;;;;;;;;;;;;;;;6140501;23;20169;-87
2022/11/24 07:25:34;;;;;;;;;;;;;;;;;;6170569;23;19986;-88
2022/11/24 07:28:00;;;;;;;;;;;;;;;;;;6163924;23;19916;-87
2022/11/24 07:30:26;;;;;;;;;;;;;;;;;;6165380;23;19916;-88
2022/11/24 07:32:52;;;;;;;;;;;;;;;;;;6170043;23;19920;-88
2022/11/24 07:35:17;;;;;;;;;;;;;;;;;;6164995;23;19920;-89
2022/11/24 07:37:43;;;;;;;;;;;;;;;;;;6170352;23;19920;-88
2022/11/24 07:40:09;;;;;;;;;;;;;;;;;;6164456;23;19916;-88
2022/11/24 07:42:35;;;;;;;;;;;;;;;;;;6170438;23;20224;-88
2022/11/24 07:45:01;;;;;;;;;;;;;;;;;;6164827;23;20233;-88
2022/11/24 07:47:27;;;;;;;;;;;;;;;;;;6164382;23;19927;-91
2022/11/24 07:49:53;;;;;;;;;;;;;;;;;;6173889;23;19923;-88
2022/11/24 07:52:19;;;;;;;;;;;;;;;;;;6164730;23;19921;-88
2022/11/24 07:54:45;;;;;;;;;;;;;;;;;;6171635;23;19897;-89
2022/11/24 07:57:11;;;;;;;;;;;;;;;;;;6166944;23;20398;-90
2022/11/24 07:59:37;;;;;;;;;;;;;;;;;;6165835;23;19916;-92
2022/11/24 08:02:03;;;;;;;;;;;;;;;;;;6171320;23;19920;-89
2022/11/24 08:04:29;;;;;;;;;;;;;;;;;;6115223;23;20478;-89
2022/11/24 08:06:55;;;;;;;;;;;;;;;;;;6122887;23;19921;-87
2022/11/24 08:09:20;;;;;;;;;;;;;;;;;;6143301;23;20595;-88
2022/11/24 08:11:46;;;;;;;;;;;;;;;;;;6145560;23;20175;-88
2022/11/24 08:14:12;;;;;;;;;;;;;;;;;;6144219;23;19967;-88
2022/11/24 08:16:38;;;;;;;;;;;;;;;;;;6142924;23;20397;-88
2022/11/24 08:19:04;;;;;;;;;;;;;;;;;;6142885;23;20324;-87
2022/11/24 08:21:31;;;;;;;;;;;;;;;;;;6164397;23;20324;-89
2022/11/24 08:23:57;;;;;;;;;;;;;;;;;;6169089;23;20200;-87
2022/11/24 08:26:23;;;;;;;;;;;;;;;;;;6163566;23;20337;-88
2022/11/24 08:28:49;;;;;;;;;;;;;;;;;;6168323;23;19916;-87
2022/11/24 08:31:15;;;;;;;;;;;;;;;;;;6163966;23;19916;-87
2022/11/24 08:33:41;;;;;;;;;;;;;;;;;;6170170;23;19948;-87
2022/11/24 08:36:07;;;;;;;;;;;;;;;;;;6164229;23;19927;-88
2022/11/24 08:38:33;;;;;;;;;;;;;;;;;;6167272;23;19992;-88
2022/11/24 08:40:59;;;;;;;;;;;;;;;;;;6168915;23;19916;-89
2022/11/24 08:43:25;;;;;;;;;;;;;;;;;;6165050;23;20262;-91
2022/11/24 08:45:51;;;;;;;;;;;;;;;;;;6167697;23;20248;-88
2022/11/24 08:48:17;;;;;;;;;;;;;;;;;;6060908;23;19916;-87
2022/11/24 08:50:42;;;;;;;;;;;;;;;;;;6115479;23;20328;-89
2022/11/24 08:53:08;;;;;;;;;;;;;;;;;;6110983;23;19917;-88
2022/11/24 08:55:34;;;;;;;;;;;;;;;;;;6114151;23;19955;-89
2022/11/24 08:58:00;;;;;;;;;;;;;;;;;;6062151;23;19921;-87
2022/11/24 09:00:26;;;;;;;;;;;;;;;;;;6112678;23;19928;-91
2022/11/24 09:02:52;;;;;;;;;;;;;;;;;;6120583;23;20798;-89
2022/11/24 09:05:18;;;;;;;;;;;;;;;;;;6111466;23;19988;-86
2022/11/24 09:07:44;;;;;;;;;;;;;;;;;;6113957;23;19921;-89
2022/11/24 09:10:10;;;;;;;;;;;;;;;;;;6109640;23;19921;-88
2022/11/24 09:12:36;;;;;;;;;;;;;;;;;;6113588;23;19916;-90
2022/11/24 09:15:02;;;;;;;;;;;;;;;;;;6111532;23;19916;-86
2022/11/24 09:17:28;;;;;;;;;;;;;;;;;;6112193;23;20024;-86
2022/11/24 09:19:54;;;;;;;;;;;;;;;;;;6117359;23;19917;-86
2022/11/24 09:22:20;;;;;;;;;;;;;;;;;;6112253;23;20246;-86
2022/11/24 09:24:46;;;;;;;;;;;;;;;;;;6116955;23;19927;-85
2022/11/24 09:27:12;;;;;;;;;;;;;;;;;;6111210;23;19924;-85
2022/11/24 09:29:38;;;;;;;;;;;;;;;;;;6116242;23;19921;-85
2022/11/24 09:32:04;;;;;;;;;;;;;;;;;;6110984;23;19924;-85
2022/11/24 09:34:30;;;;;;;;;;;;;;;;;;6116930;23;20709;-86
2022/11/24 09:36:57;;;;;;;;;;;;;;;;;;6113085;23;19921;-86
2022/11/24 09:39:23;;;;;;;;;;;;;;;;;;6116033;23;19995;-85
2022/11/24 09:41:49;;;;;;;;;;;;;;;;;;6115355;23;20011;-86
2022/11/24 09:44:15;;;;;;;;;;;;;;;;;;6111580;23;19921;-86
2022/11/24 09:46:41;;;;;;;;;;;;;;;;;;6141740;23;19927;-86
2022/11/24 09:49:07;;;;;;;;;;;;;;;;;;6165218;23;19920;-86
2022/11/24 09:51:33;;;;;;;;;;;;;;;;;;6143211;23;19916;-86
2022/11/24 09:53:59;;;;;;;;;;;;;;;;;;6144256;23;19916;-85
2022/11/24 09:56:25;;;;;;;;;;;;;;;;;;6145242;23;19920;-87
2022/11/24 09:58:51;;;;;;;;;;;;;;;;;;6143137;23;20391;-87
2022/11/24 10:01:17;;;;;;;;;;;;;;;;;;6144798;23;19917;-87
2022/11/24 10:03:43;;;;;;;;;;;;;;;;;;6144867;23;19920;-85
2022/11/24 10:06:08;;;;;;;;;;;;;;;;;;6142087;23;19916;-85
2022/11/24 10:08:34;;;;;;;;;;;;;;;;;;6168102;23;20372;-83
2022/11/24 10:11:00;;;;;;;;;;;;;;;;;;6164090;23;20385;-82
2022/11/24 10:13:26;;;;;;;;;;;;;;;;;;6164423;23;19962;-84
2022/11/24 10:15:52;;;;;;;;;;;;;;;;;;6144758;23;19997;-87
2022/11/24 10:18:18;;;;;;;;;;;;;;;;;;6164052;23;19947;-85
2022/11/24 10:20:44;;;;;;;;;;;;;;;;;;6168468;23;19924;-83
2022/11/24 10:23:10;;;;;;;;;;;;;;;;;;6165045;23;20039;-86
2022/11/24 10:25:36;;;;;;;;;;;;;;;;;;6119750;23;19967;-84
2022/11/24 10:28:02;;;;;;;;;;;;;;;;;;6166336;23;19927;-86
2022/11/24 10:30:28;;;;;;;;;;;;;;;;;;6168350;23;19955;-87
2022/11/24 10:32:54;;;;;;;;;;;;;;;;;;6172340;23;19927;-86
2022/11/24 10:35:23;;;;;;;;;;;;;;;;;;6164877;23;19924;-83
2022/11/24 10:37:49;;;;;;;;;;;;;;;;;;6166918;23;20399;-83
2022/11/24 10:40:15;;;;;;;;;;;;;;;;;;6164667;23;19923;-86
2022/11/24 10:42:42;;;;;;;;;;;;;;;;;;6169829;23;19920;-86
2022/11/24 10:45:08;;;;;;;;;;;;;;;;;;6164964;23;20381;-85
2022/11/24 10:47:34;;;;;;;;;;;;;;;;;;6118500;23;19921;-86
2022/11/24 10:50:00;;;;;;;;;;;;;;;;;;6115760;23;19992;-86
2022/11/24 10:52:26;;;;;;;;;;;;;;;;;;6109899;23;20276;-85
2022/11/24 10:54:52;;;;;;;;;;;;;;;;;;6113838;23;19916;-87
2022/11/24 10:57:18;;;;;;;;;;;;;;;;;;6106958;23;19924;-85
2022/11/24 10:59:44;;;;;;;;;;;;;;;;;;6114756;23;19935;-84
2022/11/24 11:02:11;;;;;;;;;;;;;;;;;;6111677;23;19955;-85
2022/11/24 11:04:37;;;;;;;;;;;;;;;;;;6107605;23;19921;-89
2022/11/24 11:07:03;;;;;;;;;;;;;;;;;;6117131;23;20363;-88
2022/11/24 11:14:39;;;;;;;;;;;;;;;;;;6114360;23;20335;-76
2022/11/24 11:17:05;;;;;;;;;;;;;;;;;;6088627;23;19999;-76
2022/11/24 11:19:31;;;;;;;;;;;;;;;;;;6138017;23;20300;-76
2022/11/24 11:21:57;;;;;;;;;;;;;;;;;;6138364;23;19920;-76
2022/11/24 11:24:23;;;;;;;;;;;;;;;;;;6138788;23;19920;-76
2022/11/24 11:26:49;;;;;;;;;;;;;;;;;;6136850;23;20338;-76
2022/11/24 11:29:15;;;;;;;;;;;;;;;;;;6138318;23;20015;-76
2022/11/24 11:31:41;;;;;;;;;;;;;;;;;;6138059;23;19916;-75
2022/11/24 11:34:07;;;;;;;;;;;;;;;;;;6139808;23;20077;-76
2022/11/24 11:36:33;;;;;;;;;;;;;;;;;;6138747;23;20347;-76
2022/11/24 11:38:59;;;;;;;;;;;;;;;;;;6139054;23;20011;-76
2022/11/24 11:41:25;;;;;;;;;;;;;;;;;;6138129;23;20328;-75
2022/11/24 11:43:51;;;;;;;;;;;;;;;;;;6138331;23;20239;-75
2022/11/24 11:46:17;;;;;;;;;;;;;;;;;;6089861;23;19916;-76
2022/11/24 11:48:45;;;;;;;;;;;;;;;;;;6138642;23;19916;-76
2022/11/24 11:51:11;;;;;;;;;;;;;;;;;;6139008;23;19920;-77
2022/11/24 11:53:37;;;;;;;;;;;;;;;;;;6139190;23;19923;-76
2022/11/24 11:56:03;;;;;;;;;;;;;;;;;;6089406;23;19920;-77
2022/11/24 11:58:29;;;;;;;;;;;;;;;;;;6138607;23;19983;-77
2022/11/24 12:00:55;;;;;;;;;;;;;;;;;;6138236;23;20300;-76
2022/11/24 12:03:21;;;;;;;;;;;;;;;;;;6138360;23;19948;-76
2022/11/24 12:05:47;;;;;;;;;;;;;;;;;;6089232;23;19921;-76
2022/11/24 12:08:12;;;;;;;;;;;;;;;;;;6137337;23;19917;-77
2022/11/24 12:10:38;;;;;;;;;;;;;;;;;;6137403;23;19916;-76
2022/11/24 12:13:04;;;;;;;;;;;;;;;;;;6139812;23;19916;-75
2022/11/24 12:15:30;;;;;;;;;;;;;;;;;;6138965;23;19920;-77
2022/11/24 12:17:56;;;;;;;;;;;;;;;;;;6138310;23;20382;-76
2022/11/24 12:20:22;;;;;;;;;;;;;;;;;;6138485;23;20404;-77
2022/11/24 12:22:48;;;;;;;;;;;;;;;;;;6088184;23;20332;-77
2022/11/24 12:25:14;;;;;;;;;;;;;;;;;;6089423;23;19925;-76
2022/11/24 12:27:40;;;;;;;;;;;;;;;;;;6138208;23;19923;-77
2022/11/24 12:30:06;;;;;;;;;;;;;;;;;;6138559;23;20308;-76
2022/11/24 12:32:32;;;;;;;;;;;;;;;;;;6139131;23;19920;-76
2022/11/24 12:34:58;;;;;;;;;;;;;;;;;;6138654;23;20105;-76
2022/11/24 12:37:25;;;;;;;;;;;;;;;;;;6138342;23;20070;-76
2022/11/24 12:39:51;;;;;;;;;;;;;;;;;;6088778;23;19993;-76
2022/11/24 12:42:17;;;;;;;;;;;;;;;;;;6138923;23;19975;-76
2022/11/24 12:44:43;;;;;;;;;;;;;;;;;;6139105;23;19944;-76
2022/11/24 12:47:09;;;;;;;;;;;;;;;;;;6139492;23;19947;-76
2022/11/24 12:49:35;;;;;;;;;;;;;;;;;;6142628;23;19970;-77
2022/11/24 12:52:00;;;;;;;;;;;;;;;;;;6142474;23;20006;-76
2022/11/24 12:54:26;;;;;;;;;;;;;;;;;;6140924;23;20656;-77
2022/11/24 12:56:52;;;;;;;;;;;;;;;;;;6141017;23;19924;-75
2022/11/24 12:59:18;;;;;;;;;;;;;;;;;;6143450;23;19922;-74
2022/11/24 13:01:44;;;;;;;;;;;;;;;;;;6142804;23;19916;-75
2022/11/24 13:04:10;;;;;;;;;;;;;;;;;;6141187;23;19927;-76
2022/11/24 13:06:36;;;;;;;;;;;;;;;;;;6139167;23;19916;-76
2022/11/24 13:09:02;;;;;;;;;;;;;;;;;;6140618;23;19912;-75
2022/11/24 13:11:28;;;;;;;;;;;;;;;;;;6141343;23;19954;-76
2022/11/24 13:13:54;;;;;;;;;;;;;;;;;;6140482;23;20393;-76
2022/11/24 13:16:20;;;;;;;;;;;;;;;;;;6139729;23;19917;-75
2022/11/24 13:18:46;;;;;;;;;;;;;;;;;;6139882;23;20333;-76
2022/11/24 13:21:12;;;;;;;;;;;;;;;;;;6141360;23;19974;-77
2022/11/24 13:23:38;;;;;;;;;;;;;;;;;;6140153;23;19928;-80
2022/11/24 13:26:04;;;;;;;;;;;;;;;;;;6141304;23;19922;-77
2022/11/24 13:28:30;;;;;;;;;;;;;;;;;;6142293;23;19916;-77
2022/11/24 13:30:56;;;;;;;;;;;;;;;;;;6139113;23;19920;-75
2022/11/24 13:33:22;;;;;;;;;;;;;;;;;;6092163;23;19916;-79
2022/11/24 13:35:48;;;;;;;;;;;;;;;;;;6140974;23;19960;-76
2022/11/24 13:38:14;;;;;;;;;;;;;;;;;;6140595;23;20064;-78
2022/11/24 13:40:40;;;;;;;;;;;;;;;;;;6139882;23;20322;-76
2022/11/24 13:43:06;;;;;;;;;;;;;;;;;;6138702;23;19994;-72
2022/11/24 13:45:32;;;;;;;;;;;;;;;;;;6142328;23;19917;-80
2022/11/24 13:47:58;;;;;;;;;;;;;;;;;;6140691;23;19923;-75
2022/11/24 13:50:24;;;;;;;;;;;;;;;;;;6139367;23;19984;-77
2022/11/24 13:52:50;;;;;;;;;;;;;;;;;;6140325;23;20339;-75
2022/11/24 13:55:18;;;;;;;;;;;;;;;;;;6142140;23;19986;-76
2022/11/24 13:57:44;;;;;;;;;;;;;;;;;;6142161;23;20023;-76
2022/11/24 14:00:10;;;;;;;;;;;;;;;;;;6140343;23;20020;-75
2022/11/24 14:02:36;;;;;;;;;;;;;;;;;;6140012;23;20424;-75
2022/11/24 14:05:01;;;;;;;;;;;;;;;;;;6140367;23;19916;-76
2022/11/24 14:07:27;;;;;;;;;;;;;;;;;;6139303;23;19971;-75
2022/11/24 14:09:53;;;;;;;;;;;;;;;;;;6140496;23;19939;-75
2022/11/24 14:12:19;;;;;;;;;;;;;;;;;;6140489;23;19924;-75
2022/11/24 14:14:45;;;;;;;;;;;;;;;;;;6139440;23;20407;-75
2022/11/24 14:17:11;;;;;;;;;;;;;;;;;;6140610;23;20355;-76
2022/11/24 14:19:37;;;;;;;;;;;;;;;;;;6140780;23;19982;-75
2022/11/24 14:22:03;;;;;;;;;;;;;;;;;;6140133;23;20035;-75
2022/11/24 14:24:29;;;;;;;;;;;;;;;;;;6140326;23;20433;-76
2022/11/24 14:26:55;;;;;;;;;;;;;;;;;;6140823;23;19927;-75
2022/11/24 14:29:21;;;;;;;;;;;;;;;;;;6141109;23;19916;-76
2022/11/24 14:31:47;;;;;;;;;;;;;;;;;;6140741;23;19920;-76
2022/11/24 14:34:13;;;;;;;;;;;;;;;;;;6139625;23;19922;-76
2022/11/24 14:36:39;;;;;;;;;;;;;;;;;;6139292;23;19944;-75
2022/11/24 14:39:05;;;;;;;;;;;;;;;;;;6140083;23;19920;-75
2022/11/24 14:41:31;;;;;;;;;;;;;;;;;;6140127;23;20011;-75
2022/11/24 14:43:57;;;;;;;;;;;;;;;;;;6140462;23;19916;-75
2022/11/24 14:46:23;;;;;;;;;;;;;;;;;;6140080;23;20229;-75
2022/11/24 14:48:49;;;;;;;;;;;;;;;;;;6138947;23;19920;-75
2022/11/24 14:51:15;;;;;;;;;;;;;;;;;;6139269;23;19923;-75
2022/11/24 14:53:41;;;;;;;;;;;;;;;;;;6139936;23;20351;-75
2022/11/24 14:56:07;;;;;;;;;;;;;;;;;;6139898;23;19916;-75
2022/11/24 14:58:33;;;;;;;;;;;;;;;;;;6139479;23;20347;-74
2022/11/24 15:00:59;;;;;;;;;;;;;;;;;;6139971;23;19931;-75
2022/11/24 15:03:25;;;;;;;;;;;;;;;;;;6139641;23;20323;-75
2022/11/24 15:05:51;;;;;;;;;;;;;;;;;;6141019;23;19916;-79
2022/11/24 15:08:17;;;;;;;;;;;;;;;;;;6138296;23;20714;-76
2022/11/24 15:10:43;;;;;;;;;;;;;;;;;;6138113;23;19916;-76
2022/11/24 15:13:09;;;;;;;;;;;;;;;;;;6139456;23;19920;-76
2022/11/24 15:15:35;;;;;;;;;;;;;;;;;;6140820;23;20057;-76
2022/11/24 15:18:01;;;;;;;;;;;;;;;;;;6140098;23;19920;-76
2022/11/24 15:20:27;;;;;;;;;;;;;;;;;;6138171;23;20552;-75
2022/11/24 15:22:54;;;;;;;;;;;;;;;;;;6138551;23;19975;-76
2022/11/24 15:25:20;;;;;;;;;;;;;;;;;;6139237;23;19931;-76
2022/11/24 15:27:46;;;;;;;;;;;;;;;;;;6089503;23;19916;-76
2022/11/24 15:30:12;;;;;;;;;;;;;;;;;;6137040;23;19916;-76
2022/11/24 15:32:38;;;;;;;;;;;;;;;;;;6137406;23;19917;-74
2022/11/24 15:35:04;;;;;;;;;;;;;;;;;;6139101;23;19916;-76
2022/11/24 15:37:29;;;;;;;;;;;;;;;;;;6137029;23;20169;-77
2022/11/24 15:39:55;;;;;;;;;;;;;;;;;;6138071;23;20331;-76
2022/11/24 15:42:21;;;;;;;;;;;;;;;;;;6138565;23;19917;-77
2022/11/24 15:44:47;;;;;;;;;;;;;;;;;;6138794;23;19922;-76
2022/11/24 15:47:13;;;;;;;;;;;;;;;;;;6138987;23;19917;-76
2022/11/24 15:49:39;;;;;;;;;;;;;;;;;;6140439;23;20279;-75
2022/11/24 15:52:05;;;;;;;;;;;;;;;;;;6140663;23;19979;-76
2022/11/24 15:54:31;;;;;;;;;;;;;;;;;;6138785;23;20145;-76
2022/11/24 15:56:57;;;;;;;;;;;;;;;;;;6137920;23;19917;-76
2022/11/24 15:59:23;;;;;;;;;;;;;;;;;;6138588;23;19925;-76
2022/11/24 16:01:49;;;;;;;;;;;;;;;;;;6113380;23;19920;-75
2022/11/24 16:04:18;;;;;;;;;;;;;;;;;;6138399;23;20378;-76
2022/11/24 16:06:44;;;;;;;;;;;;;;;;;;6138023;23;20370;-76
2022/11/24 16:09:10;;;;;;;;;;;;;;;;;;6137288;23;20368;-77
2022/11/24 16:11:36;;;;;;;;;;;;;;;;;;6137504;23;19959;-76
2022/11/24 16:14:02;;;;;;;;;;;;;;;;;;6136913;23;19963;-76
2022/11/24 16:16:28;;;;;;;;;;;;;;;;;;6138333;23;19925;-75
2022/11/24 16:18:54;;;;;;;;;;;;;;;;;;6137563;23;19956;-75
2022/11/24 16:21:20;;;;;;;;;;;;;;;;;;6138588;23;20462;-76
2022/11/24 16:23:47;;;;;;;;;;;;;;;;;;6087787;23;20339;-75
2022/11/24 16:26:13;;;;;;;;;;;;;;;;;;6138183;23;20304;-75
2022/11/24 16:28:39;;;;;;;;;;;;;;;;;;6139751;23;19916;-75
2022/11/24 16:31:05;;;;;;;;;;;;;;;;;;6137719;23;19916;-75
2022/11/24 16:33:31;;;;;;;;;;;;;;;;;;6137384;23;19916;-75
2022/11/24 16:35:57;;;;;;;;;;;;;;;;;;6138534;23;19920;-76
2022/11/24 16:38:23;;;;;;;;;;;;;;;;;;6138027;23;19920;-76
2022/11/24 16:40:49;;;;;;;;;;;;;;;;;;6137409;23;20309;-76